Clayton, South Dakota
Current Conditions -  °F | °C
As of 7:53 AM on Sunday 25 Jan 2015 (Local Time) from KMHE Reporting Station
Overcast Overcast  
Wind Chill: 24°   Ceiling: 700
Heat Index: 32°   Visibility: 10mi
Dew Point: 30°   Wind: 9mph
Humidity: 92%   Direction: 330°NNW
Pressure: 29.98"   Gusts: NA
Location:  43.5283°N, 97.6775°W
Report Text: KMHE 251353Z AUTO 33008KT 10SM BKN007 BKN016 OVC044 00/M01 A2998 RMK AO2 SLP162 T00001011
Loading
Personal Weather Stations






























Interactive Weather Map New forecast layout! Learn more

10-Day Weather Forecast

Advertisements
Track Severe Weather on mobile